Time;durP1;ratioP1;P1;durP2;ratioP2;P2;SDS_P1;SDS_P2;PMS_P1;PMS_P2;Temp;Humidity;BMP_temperature;BMP_pressure;BME280_temperature;BME280_humidity;BME280_pressure;Samples;Min_cycle;Max_cycle;Signal;HPM_P1;HPM_P2
2023/10/08 00:00:38;;;;;;;0.20;0.00;;;;;;;;;;4975407;28;20054;-84
2023/10/08 00:02:45;;;;;;;0.20;0.00;;;;;;;;;;4978556;28;20515;-83
2023/10/08 00:05:14;;;;;;;0.20;0.00;;;;;;;;;;4960094;28;20045;-84
2023/10/08 00:07:42;;;;;;;0.20;0.00;;;;;;;;;;4965543;28;20121;-82
2023/10/08 00:10:08;;;;;;;0.20;0.00;;;;;;;;;;4955687;28;20503;-84
2023/10/08 00:12:34;;;;;;;0.20;0.00;;;;;;;;;;4975064;28;20548;-83
2023/10/08 00:15:00;;;;;;;0.20;0.00;;;;;;;;;;4975890;28;20046;-84
2023/10/08 00:17:27;;;;;;;0.20;0.00;;;;;;;;;;4974905;28;20089;-83
2023/10/08 00:19:53;;;;;;;0.20;0.00;;;;;;;;;;4975768;28;20042;-82
2023/10/08 00:22:19;;;;;;;0.20;0.00;;;;;;;;;;4973583;28;20105;-85
2023/10/08 00:24:46;;;;;;;0.20;0.00;;;;;;;;;;4974262;28;20051;-84
2023/10/08 00:27:17;;;;;;;0.20;0.00;;;;;;;;;;4975969;28;20140;-82
2023/10/08 00:29:43;;;;;;;0.20;0.10;;;;;;;;;;4957050;28;20461;-82
2023/10/08 00:32:13;;;;;;;0.20;0.00;;;;;;;;;;4974962;28;20072;-85
2023/10/08 00:34:43;;;;;;;0.20;0.00;;;;;;;;;;4975219;28;20034;-84
2023/10/08 00:37:10;;;;;;;0.20;0.10;;;;;;;;;;4959345;28;20570;-83
2023/10/08 00:39:38;;;;;;;0.20;0.00;;;;;;;;;;4975420;28;20065;-83
2023/10/08 00:42:07;;;;;;;0.20;0.00;;;;;;;;;;4976029;28;20046;-83
2023/10/08 00:44:37;;;;;;;0.20;0.00;;;;;;;;;;4974951;28;20039;-81
2023/10/08 00:47:05;;;;;;;0.20;0.00;;;;;;;;;;4974888;28;20132;-82
2023/10/08 00:57:23;;;;;;;0.20;0.00;;;;;;;;;;4982764;28;20845;-83
2023/10/08 00:59:53;;;;;;;0.20;0.00;;;;;;;;;;4980637;28;20046;-84
2023/10/08 01:05:17;;;;;;;0.20;0.10;;;;;;;;;;4977328;28;20038;-83
2023/10/08 01:07:44;;;;;;;0.20;0.00;;;;;;;;;;4978284;28;20479;-87
2023/10/08 01:10:13;;;;;;;0.20;0.00;;;;;;;;;;4965699;28;20038;-83
2023/10/08 01:15:28;;;;;;;0.20;0.00;;;;;;;;;;4981513;28;20038;-85
2023/10/08 01:17:59;;;;;;;0.20;0.00;;;;;;;;;;4958307;28;20042;-82
2023/10/08 01:20:38;;;;;;;0.20;0.10;;;;;;;;;;4980937;28;20327;-83
2023/10/08 01:23:09;;;;;;;0.20;0.00;;;;;;;;;;4960124;28;20599;-84
2023/10/08 01:25:36;;;;;;;0.20;0.00;;;;;;;;;;4956684;28;20042;-84
2023/10/08 01:28:08;;;;;;;0.20;0.00;;;;;;;;;;4959236;28;20038;-83
2023/10/08 01:30:41;;;;;;;0.20;0.00;;;;;;;;;;4973412;28;20034;-84
2023/10/08 01:33:11;;;;;;;0.20;0.00;;;;;;;;;;4973839;28;20106;-83
2023/10/08 01:35:37;;;;;;;0.20;0.10;;;;;;;;;;4974907;28;20053;-84
2023/10/08 01:38:03;;;;;;;0.20;0.00;;;;;;;;;;4955152;28;20042;-86
2023/10/08 01:40:30;;;;;;;0.20;0.00;;;;;;;;;;4975058;28;20420;-84
2023/10/08 01:43:00;;;;;;;0.20;0.00;;;;;;;;;;4970779;28;20749;-83
2023/10/08 01:45:26;;;;;;;0.20;0.00;;;;;;;;;;4974341;28;20045;-83
2023/10/08 01:47:54;;;;;;;0.20;0.10;;;;;;;;;;4952933;28;20132;-85
2023/10/08 01:50:21;;;;;;;0.20;0.10;;;;;;;;;;4986811;28;20033;-84
2023/10/08 01:52:53;;;;;;;0.20;0.00;;;;;;;;;;4972972;28;20026;-83
2023/10/08 01:55:21;;;;;;;0.20;0.00;;;;;;;;;;4972843;28;20505;-84
2023/10/08 01:57:48;;;;;;;0.20;0.00;;;;;;;;;;4955474;28;20049;-83
2023/10/08 02:00:19;;;;;;;0.20;0.10;;;;;;;;;;4970939;28;20042;-84
2023/10/08 02:02:45;;;;;;;0.20;0.00;;;;;;;;;;4970970;28;20058;-84
2023/10/08 02:05:14;;;;;;;0.20;0.00;;;;;;;;;;4970961;28;20412;-83
2023/10/08 02:07:45;;;;;;;0.20;0.00;;;;;;;;;;4970905;28;20403;-84
2023/10/08 02:10:11;;;;;;;0.20;0.00;;;;;;;;;;4962255;28;20041;-83
2023/10/08 02:12:41;;;;;;;0.20;0.00;;;;;;;;;;4953062;28;20050;-85
2023/10/08 02:15:08;;;;;;;0.20;0.00;;;;;;;;;;4970589;28;21981;-85
2023/10/08 02:17:34;;;;;;;0.20;0.00;;;;;;;;;;4952896;28;20133;-83
2023/10/08 02:20:04;;;;;;;0.20;0.00;;;;;;;;;;4972875;28;20077;-83
2023/10/08 02:22:30;;;;;;;0.20;0.00;;;;;;;;;;4969155;28;20049;-84
2023/10/08 02:25:01;;;;;;;0.20;0.08;;;;;;;;;;4971952;28;20038;-83
2023/10/08 02:27:27;;;;;;;0.20;0.05;;;;;;;;;;4954808;28;20038;-85
2023/10/08 02:29:54;;;;;;;0.20;0.00;;;;;;;;;;4971119;28;20078;-83
2023/10/08 02:32:22;;;;;;;0.20;0.00;;;;;;;;;;4968686;28;20061;-83
2023/10/08 02:34:48;;;;;;;0.20;0.00;;;;;;;;;;4971960;28;20038;-84
2023/10/08 02:37:15;;;;;;;0.20;0.00;;;;;;;;;;4972874;28;20069;-83
2023/10/08 02:39:41;;;;;;;0.20;0.00;;;;;;;;;;4973651;28;20050;-83
2023/10/08 02:42:10;;;;;;;0.20;0.00;;;;;;;;;;4969342;28;20042;-84
2023/10/08 02:44:41;;;;;;;0.20;0.00;;;;;;;;;;4970574;28;20046;-84
2023/10/08 02:47:11;;;;;;;0.20;0.00;;;;;;;;;;4971844;28;20045;-84
2023/10/08 02:49:41;;;;;;;0.20;0.10;;;;;;;;;;4986527;28;20050;-84
2023/10/08 02:52:12;;;;;;;0.20;0.00;;;;;;;;;;4971361;28;20117;-83
2023/10/08 02:54:38;;;;;;;0.20;0.00;;;;;;;;;;4955638;28;20514;-83
2023/10/08 02:57:09;;;;;;;0.20;0.00;;;;;;;;;;4970998;28;20037;-83
2023/10/08 02:59:42;;;;;;;0.20;0.03;;;;;;;;;;4969527;28;20034;-83
2023/10/08 03:02:18;;;;;;;0.20;0.00;;;;;;;;;;4956925;28;20050;-84
2023/10/08 03:04:50;;;;;;;0.20;0.10;;;;;;;;;;4968826;28;20057;-84
2023/10/08 03:07:31;;;;;;;0.20;0.00;;;;;;;;;;4970455;28;20038;-83
2023/10/08 03:10:05;;;;;;;0.20;0.00;;;;;;;;;;4968670;28;20046;-84
2023/10/08 03:12:32;;;;;;;0.20;0.00;;;;;;;;;;4970837;28;20051;-84
2023/10/08 03:15:11;;;;;;;0.20;0.00;;;;;;;;;;4968662;28;20220;-83
2023/10/08 03:17:48;;;;;;;0.20;0.10;;;;;;;;;;4954715;28;20701;-84
2023/10/08 03:20:29;;;;;;;0.20;0.10;;;;;;;;;;4965245;28;20046;-83
2023/10/08 03:22:57;;;;;;;0.32;0.10;;;;;;;;;;4966933;28;20038;-83
2023/10/08 03:25:24;;;;;;;0.20;0.00;;;;;;;;;;4970020;28;20046;-86
2023/10/08 03:27:50;;;;;;;0.20;0.00;;;;;;;;;;4957102;28;20499;-83
2023/10/08 03:30:16;;;;;;;0.20;0.10;;;;;;;;;;4971318;28;20407;-83
2023/10/08 03:32:50;;;;;;;0.20;0.00;;;;;;;;;;4971742;28;20042;-84
2023/10/08 03:35:27;;;;;;;0.20;0.10;;;;;;;;;;4971451;28;20446;-83
2023/10/08 03:37:54;;;;;;;0.20;0.00;;;;;;;;;;4972106;28;20101;-83
2023/10/08 03:40:42;;;;;;;0.20;0.00;;;;;;;;;;4974819;28;20376;-84
2023/10/08 03:43:24;;;;;;;0.20;0.00;;;;;;;;;;4971630;28;20054;-84
2023/10/08 03:46:05;;;;;;;0.20;0.00;;;;;;;;;;4973721;28;20050;-84
2023/10/08 03:48:38;;;;;;;0.20;0.05;;;;;;;;;;4967541;28;20034;-84
2023/10/08 03:51:11;;;;;;;0.20;0.00;;;;;;;;;;4973080;28;20038;-84
2023/10/08 03:53:42;;;;;;;0.20;0.00;;;;;;;;;;4955729;28;20038;-83
2023/10/08 03:56:08;;;;;;;0.20;0.00;;;;;;;;;;4957450;28;20073;-83
2023/10/08 03:58:41;;;;;;;0.20;0.00;;;;;;;;;;4957773;28;20034;-83
2023/10/08 04:01:11;;;;;;;0.20;0.10;;;;;;;;;;4970914;28;20417;-83
2023/10/08 04:06:28;;;;;;;0.20;0.00;;;;;;;;;;4972867;28;20185;-83
2023/10/08 04:11:51;;;;;;;0.20;0.00;;;;;;;;;;4973533;28;20043;-84
2023/10/08 04:14:25;;;;;;;0.20;0.10;;;;;;;;;;4973933;28;20042;-83
2023/10/08 04:16:54;;;;;;;0.20;0.00;;;;;;;;;;4952075;28;20100;-83
2023/10/08 04:19:21;;;;;;;0.20;0.00;;;;;;;;;;4972317;28;20129;-83
2023/10/08 04:21:53;;;;;;;0.20;0.00;;;;;;;;;;4970857;28;20919;-84
2023/10/08 04:24:25;;;;;;;0.20;0.00;;;;;;;;;;4956029;28;20042;-82
2023/10/08 04:26:51;;;;;;;0.20;0.00;;;;;;;;;;4973929;28;20049;-83
2023/10/08 04:29:22;;;;;;;0.20;0.00;;;;;;;;;;4959090;28;20034;-83
2023/10/08 04:31:54;;;;;;;0.20;0.05;;;;;;;;;;4973975;28;20181;-83
2023/10/08 04:34:23;;;;;;;0.20;0.10;;;;;;;;;;4957555;28;20623;-83
2023/10/08 04:36:57;;;;;;;0.20;0.08;;;;;;;;;;4958398;28;20050;-83
2023/10/08 04:39:32;;;;;;;0.20;0.10;;;;;;;;;;4975219;28;20065;-84
2023/10/08 04:41:59;;;;;;;0.20;0.10;;;;;;;;;;4986621;28;20046;-83
2023/10/08 04:44:25;;;;;;;0.20;0.00;;;;;;;;;;4974135;28;20053;-83
2023/10/08 04:46:52;;;;;;;0.20;0.00;;;;;;;;;;4956322;28;20176;-83
2023/10/08 04:49:28;;;;;;;0.20;0.05;;;;;;;;;;4976022;28;20049;-84
2023/10/08 04:52:14;;;;;;;0.20;0.00;;;;;;;;;;4971935;28;20081;-84
2023/10/08 04:54:41;;;;;;;0.20;0.00;;;;;;;;;;4972315;28;20041;-83
2023/10/08 04:57:15;;;;;;;0.20;0.00;;;;;;;;;;4973122;28;20056;-82
2023/10/08 04:59:41;;;;;;;0.47;0.30;;;;;;;;;;4971913;28;20060;-83
2023/10/08 05:13:01;;;;;;;0.20;0.10;;;;;;;;;;5009685;28;20042;-87
2023/10/08 05:15:41;;;;;;;0.20;0.08;;;;;;;;;;5007369;28;20068;-87
2023/10/08 05:18:51;;;;;;;0.20;0.10;;;;;;;;;;5007287;28;20056;-87
2023/10/08 05:21:28;;;;;;;0.20;0.00;;;;;;;;;;5006766;28;20129;-87
2023/10/08 05:24:08;;;;;;;0.20;0.08;;;;;;;;;;5025976;28;20053;-87
2023/10/08 05:26:59;;;;;;;0.20;0.10;;;;;;;;;;4991372;28;20038;-87
2023/10/08 05:29:51;;;;;;;0.20;0.03;;;;;;;;;;5002220;28;20456;-87
2023/10/08 05:32:38;;;;;;;0.20;0.00;;;;;;;;;;5004466;28;20514;-86
2023/10/08 05:49:15;;;;;;;0.20;0.00;;;;;;;;;;5004234;28;20057;-86
2023/10/08 05:54:36;;;;;;;0.20;0.00;;;;;;;;;;5006147;28;20044;-86
2023/10/08 06:05:43;;;;;;;0.20;0.03;;;;;;;;;;5004062;28;20038;-86
2023/10/08 06:08:38;;;;;;;0.20;0.00;;;;;;;;;;4994441;28;20125;-86
2023/10/08 06:11:27;;;;;;;0.20;0.00;;;;;;;;;;4997294;28;20053;-87
2023/10/08 06:14:09;;;;;;;0.20;0.00;;;;;;;;;;4990061;28;20033;-86
2023/10/08 06:17:01;;;;;;;0.20;0.10;;;;;;;;;;5008912;28;20054;-87
2023/10/08 06:19:36;;;;;;;0.20;0.10;;;;;;;;;;5013215;28;20106;-87
2023/10/08 06:22:05;;;;;;;0.20;0.00;;;;;;;;;;4991466;28;20578;-87
2023/10/08 06:24:34;;;;;;;0.20;0.00;;;;;;;;;;4994197;28;20100;-87
2023/10/08 06:27:04;;;;;;;0.20;0.00;;;;;;;;;;4996451;28;20034;-87
2023/10/08 06:29:36;;;;;;;0.20;0.00;;;;;;;;;;5003393;28;20081;-87
2023/10/08 06:35:17;;;;;;;0.20;0.10;;;;;;;;;;5009797;28;20108;-87
2023/10/08 06:37:54;;;;;;;0.20;0.08;;;;;;;;;;4994828;28;20053;-87
2023/10/08 06:40:40;;;;;;;0.20;0.00;;;;;;;;;;4992878;28;20405;-86
2023/10/08 06:43:24;;;;;;;0.20;0.00;;;;;;;;;;4991317;28;20049;-86
2023/10/08 06:45:59;;;;;;;0.20;0.10;;;;;;;;;;4990846;28;20042;-86
2023/10/08 06:48:30;;;;;;;0.20;0.00;;;;;;;;;;5005749;28;20046;-87
2023/10/08 06:50:56;;;;;;;0.20;0.00;;;;;;;;;;5007225;28;20170;-87
2023/10/08 06:53:29;;;;;;;0.20;0.10;;;;;;;;;;5008340;28;20033;-87
2023/10/08 06:56:03;;;;;;;0.20;0.10;;;;;;;;;;4996440;28;20038;-86
2023/10/08 06:58:31;;;;;;;0.20;0.10;;;;;;;;;;5005615;28;20049;-86
2023/10/08 07:00:58;;;;;;;0.20;0.10;;;;;;;;;;5008745;28;20046;-86
2023/10/08 07:06:26;;;;;;;0.20;0.10;;;;;;;;;;5010292;28;20042;-86
2023/10/08 07:08:59;;;;;;;0.20;0.00;;;;;;;;;;5009421;28;20107;-87
2023/10/08 07:11:26;;;;;;;0.20;0.00;;;;;;;;;;5000820;28;20046;-86
2023/10/08 07:13:56;;;;;;;0.20;0.00;;;;;;;;;;4999378;28;20045;-86
2023/10/08 07:16:23;;;;;;;0.20;0.10;;;;;;;;;;5014081;28;20049;-87
2023/10/08 07:19:03;;;;;;;0.20;0.00;;;;;;;;;;4992227;28;20050;-87
2023/10/08 07:21:44;;;;;;;0.20;0.00;;;;;;;;;;4994584;28;20289;-87
2023/10/08 07:27:31;;;;;;;0.20;0.00;;;;;;;;;;5001675;28;20410;-87
2023/10/08 07:30:02;;;;;;;0.20;0.10;;;;;;;;;;5007666;28;20127;-87
2023/10/08 07:32:34;;;;;;;0.20;0.10;;;;;;;;;;4990514;28;20069;-86
2023/10/08 07:35:23;;;;;;;0.32;0.20;;;;;;;;;;5005707;28;20116;-87
2023/10/08 07:37:53;;;;;;;0.20;0.10;;;;;;;;;;4988801;28;20326;-87
2023/10/08 07:40:28;;;;;;;0.20;0.00;;;;;;;;;;4988017;28;20527;-87
2023/10/08 07:43:00;;;;;;;0.20;0.10;;;;;;;;;;4982596;28;20137;-86
2023/10/08 07:45:35;;;;;;;0.20;0.00;;;;;;;;;;5006459;28;20033;-86
2023/10/08 07:48:09;;;;;;;0.20;0.10;;;;;;;;;;5003732;28;21278;-87
2023/10/08 07:50:41;;;;;;;0.20;0.10;;;;;;;;;;5005446;28;20050;-86
2023/10/08 07:53:07;;;;;;;0.20;0.00;;;;;;;;;;4991227;28;20041;-86
2023/10/08 07:55:35;;;;;;;0.20;0.10;;;;;;;;;;5006579;28;20073;-86
2023/10/08 07:58:10;;;;;;;0.20;0.00;;;;;;;;;;5009929;28;20159;-86
2023/10/08 08:00:40;;;;;;;0.20;0.00;;;;;;;;;;5021628;28;20046;-87
2023/10/08 08:03:06;;;;;;;0.20;0.00;;;;;;;;;;5006282;28;20610;-83
2023/10/08 08:05:33;;;;;;;0.20;0.10;;;;;;;;;;5001601;28;20396;-83
2023/10/08 08:08:05;;;;;;;0.20;0.00;;;;;;;;;;5004222;28;20046;-83
2023/10/08 08:10:36;;;;;;;0.20;0.10;;;;;;;;;;5004880;28;20042;-86
2023/10/08 08:13:05;;;;;;;0.20;0.10;;;;;;;;;;5010784;28;20042;-85
2023/10/08 08:15:33;;;;;;;0.20;0.00;;;;;;;;;;5008865;28;20180;-85
2023/10/08 08:18:00;;;;;;;0.20;0.00;;;;;;;;;;5003905;28;20684;-85
2023/10/08 08:20:38;;;;;;;0.20;0.00;;;;;;;;;;5016786;28;20038;-85
2023/10/08 08:23:27;;;;;;;0.20;0.05;;;;;;;;;;4995826;28;20048;-86
2023/10/08 08:27:00;;;;;;;0.20;0.10;;;;;;;;;;4992853;28;20053;-86
2023/10/08 08:28:47;;;;;;;0.20;0.00;;;;;;;;;;5011676;28;20046;-86
2023/10/08 08:31:14;;;;;;;0.20;0.08;;;;;;;;;;5015232;28;20057;-85
2023/10/08 08:37:22;;;;;;;;;;;;;;;;;;;;;
2023/10/08 08:47:17;;;;;;;;;;;;;;;;;;;;;
2023/10/08 08:49:57;;;;;;;;;;;;;;;;;;;;;
2023/10/08 08:52:37;;;;;;;1.55;0.68;;;;;;;;;;5006305;28;20046;-87
2023/10/08 08:55:14;;;;;;;0.20;0.10;;;;;;;;;;5013702;28;20073;-86
2023/10/08 08:57:43;;;;;;;0.20;0.10;;;;;;;;;;5006182;28;20116;-86
2023/10/08 09:00:28;;;;;;;0.20;0.10;;;;;;;;;;4993121;28;20050;-87
2023/10/08 09:02:55;;;;;;;0.20;0.00;;;;;;;;;;5010497;28;20424;-85
2023/10/08 09:05:25;;;;;;;0.20;0.00;;;;;;;;;;4988694;28;20048;-85
2023/10/08 09:07:58;;;;;;;0.20;0.00;;;;;;;;;;4990699;28;20042;-83
2023/10/08 09:10:28;;;;;;;0.20;0.00;;;;;;;;;;5005423;28;20045;-85
2023/10/08 09:12:58;;;;;;;0.20;0.00;;;;;;;;;;4991148;28;20390;-84
2023/10/08 09:15:25;;;;;;;0.20;0.10;;;;;;;;;;4987956;28;20038;-84
2023/10/08 09:17:52;;;;;;;0.20;0.10;;;;;;;;;;5005141;28;20072;-84
2023/10/08 09:20:20;;;;;;;0.20;0.10;;;;;;;;;;5000284;28;20555;-84
2023/10/08 09:22:47;;;;;;;0.20;0.10;;;;;;;;;;4985068;28;20121;-84
2023/10/08 09:25:24;;;;;;;0.20;0.00;;;;;;;;;;4985529;28;20121;-84
2023/10/08 09:27:52;;;;;;;0.20;0.00;;;;;;;;;;5000697;28;20070;-84
2023/10/08 09:30:19;;;;;;;0.20;0.10;;;;;;;;;;5001675;28;20049;-84
2023/10/08 09:32:45;;;;;;;0.20;0.10;;;;;;;;;;4999484;28;20034;-84
2023/10/08 09:35:13;;;;;;;0.20;0.10;;;;;;;;;;4987807;28;20067;-83
2023/10/08 09:37:40;;;;;;;0.20;0.00;;;;;;;;;;5004398;28;20597;-84
2023/10/08 09:40:09;;;;;;;0.20;0.00;;;;;;;;;;5006772;28;20073;-83
2023/10/08 09:42:36;;;;;;;0.20;0.00;;;;;;;;;;4984612;28;20057;-83
2023/10/08 09:45:05;;;;;;;0.28;0.10;;;;;;;;;;5003796;28;20571;-83
2023/10/08 09:47:34;;;;;;;0.20;0.00;;;;;;;;;;4985671;28;20048;-84
2023/10/08 09:50:07;;;;;;;0.20;0.00;;;;;;;;;;4992286;28;20093;-84
2023/10/08 09:52:38;;;;;;;0.20;0.10;;;;;;;;;;4985650;28;20053;-84
2023/10/08 09:55:10;;;;;;;0.20;0.00;;;;;;;;;;5002158;28;20410;-83
2023/10/08 09:57:36;;;;;;;0.20;0.00;;;;;;;;;;5005797;28;20057;-83
2023/10/08 10:00:05;;;;;;;0.20;0.00;;;;;;;;;;5001156;28;20053;-84
2023/10/08 10:02:32;;;;;;;0.20;0.00;;;;;;;;;;4999850;28;20545;-83
2023/10/08 10:04:58;;;;;;;0.20;0.10;;;;;;;;;;5000674;28;20141;-83
2023/10/08 10:07:27;;;;;;;0.20;0.00;;;;;;;;;;5007702;28;20129;-84
2023/10/08 10:09:54;;;;;;;0.20;0.00;;;;;;;;;;4990712;28;20038;-84
2023/10/08 10:12:25;;;;;;;0.20;0.15;;;;;;;;;;4987001;28;20062;-83
2023/10/08 10:14:55;;;;;;;0.20;0.00;;;;;;;;;;4987755;28;20041;-85
2023/10/08 10:17:22;;;;;;;1.65;0.38;;;;;;;;;;5002789;28;20041;-85
2023/10/08 10:19:54;;;;;;;0.20;0.03;;;;;;;;;;5005096;28;20040;-83
2023/10/08 10:22:28;;;;;;;0.20;0.10;;;;;;;;;;4999443;28;20095;-82
2023/10/08 10:24:54;;;;;;;0.20;0.00;;;;;;;;;;5004180;28;20044;-83
2023/10/08 10:27:21;;;;;;;0.20;0.10;;;;;;;;;;5000815;28;20038;-84
2023/10/08 10:29:48;;;;;;;0.20;0.10;;;;;;;;;;5003466;28;20113;-84
2023/10/08 10:32:14;;;;;;;0.20;0.00;;;;;;;;;;4986606;28;20057;-84
2023/10/08 10:34:41;;;;;;;0.20;0.00;;;;;;;;;;5000482;28;20077;-85
2023/10/08 10:37:20;;;;;;;0.20;0.00;;;;;;;;;;4987628;28;20108;-84
2023/10/08 10:39:54;;;;;;;0.20;0.10;;;;;;;;;;5006780;28;20125;-86
2023/10/08 10:42:20;;;;;;;0.20;0.00;;;;;;;;;;5007945;28;20046;-83
2023/10/08 10:44:50;;;;;;;0.20;0.00;;;;;;;;;;4991760;28;20384;-85
2023/10/08 10:49:53;;;;;;;0.20;0.00;;;;;;;;;;5003355;28;20070;-86
2023/10/08 10:52:44;;;;;;;0.20;0.00;;;;;;;;;;5003218;28;20030;-85
2023/10/08 10:57:41;;;;;;;0.20;0.10;;;;;;;;;;5003736;28;20060;-84
2023/10/08 11:00:32;;;;;;;0.30;0.25;;;;;;;;;;5032449;23;20045;-87
2023/10/08 11:03:23;;;;;;;0.20;0.00;;;;;;;;;;4998709;28;20065;-83
2023/10/08 11:05:51;;;;;;;0.20;0.00;;;;;;;;;;5002190;28;20044;-83
2023/10/08 11:08:22;;;;;;;0.20;0.05;;;;;;;;;;5003337;28;20711;-83
2023/10/08 11:10:51;;;;;;;0.68;0.20;;;;;;;;;;5000653;28;20046;-84
2023/10/08 11:13:19;;;;;;;0.20;0.03;;;;;;;;;;4991364;28;20044;-82
2023/10/08 11:15:49;;;;;;;0.20;0.10;;;;;;;;;;4986947;28;20088;-83
2023/10/08 11:18:19;;;;;;;0.20;0.00;;;;;;;;;;4990374;28;20447;-83
2023/10/08 11:20:46;;;;;;;0.20;0.00;;;;;;;;;;4986692;28;20041;-82
2023/10/08 11:23:30;;;;;;;0.20;0.00;;;;;;;;;;5006483;28;20038;-82
2023/10/08 11:26:02;;;;;;;0.20;0.00;;;;;;;;;;5003253;28;20034;-82
2023/10/08 11:28:35;;;;;;;0.20;0.10;;;;;;;;;;5005619;28;20060;-81
2023/10/08 11:31:09;;;;;;;0.20;0.10;;;;;;;;;;5019799;28;20053;-81
2023/10/08 11:33:41;;;;;;;0.20;0.00;;;;;;;;;;4998313;28;20038;-82
2023/10/08 11:36:18;;;;;;;0.20;0.10;;;;;;;;;;4987554;28;20049;-82
2023/10/08 11:38:47;;;;;;;0.20;0.10;;;;;;;;;;5001158;28;20073;-82
2023/10/08 11:41:20;;;;;;;0.20;0.10;;;;;;;;;;4986057;28;20053;-82
2023/10/08 11:43:57;;;;;;;0.20;0.00;;;;;;;;;;4985357;28;20115;-82
2023/10/08 11:46:27;;;;;;;0.20;0.00;;;;;;;;;;4997208;28;20056;-81
2023/10/08 11:48:57;;;;;;;0.25;0.25;;;;;;;;;;4988196;28;20081;-82
2023/10/08 11:51:23;;;;;;;0.20;0.00;;;;;;;;;;5001824;28;21711;-81
2023/10/08 11:53:53;;;;;;;0.20;0.10;;;;;;;;;;5004702;28;20076;-83
2023/10/08 11:56:23;;;;;;;0.20;0.00;;;;;;;;;;5001897;28;20060;-86
2023/10/08 11:58:51;;;;;;;0.20;0.10;;;;;;;;;;5002614;28;20050;-81
2023/10/08 12:01:17;;;;;;;0.20;0.10;;;;;;;;;;4989650;28;20042;-82
2023/10/08 12:03:44;;;;;;;0.20;0.10;;;;;;;;;;5004081;28;20137;-81
2023/10/08 12:06:18;;;;;;;0.20;0.00;;;;;;;;;;4992172;28;20149;-82
2023/10/08 12:08:53;;;;;;;0.25;0.20;;;;;;;;;;5022412;28;20042;-83
2023/10/08 12:11:22;;;;;;;0.20;0.00;;;;;;;;;;5020947;28;20060;-81
2023/10/08 12:13:51;;;;;;;0.20;0.10;;;;;;;;;;4990897;28;20111;-81
2023/10/08 12:16:18;;;;;;;0.20;0.10;;;;;;;;;;5006387;28;20045;-82
2023/10/08 12:18:58;;;;;;;0.20;0.00;;;;;;;;;;4989690;28;20046;-81
2023/10/08 12:21:33;;;;;;;0.20;0.00;;;;;;;;;;5006535;28;20037;-81
2023/10/08 12:24:01;;;;;;;0.20;0.00;;;;;;;;;;5004140;28;20056;-82
2023/10/08 12:26:27;;;;;;;0.20;0.10;;;;;;;;;;5019774;28;20046;-83
2023/10/08 12:28:53;;;;;;;0.20;0.00;;;;;;;;;;5007037;28;20037;-81
2023/10/08 12:31:23;;;;;;;0.20;0.00;;;;;;;;;;5008020;28;20034;-81
2023/10/08 12:33:53;;;;;;;0.20;0.10;;;;;;;;;;4993304;28;20038;-81
2023/10/08 12:36:22;;;;;;;0.20;0.00;;;;;;;;;;4987300;28;20538;-83
2023/10/08 12:38:49;;;;;;;0.20;0.05;;;;;;;;;;5005827;28;20046;-81
2023/10/08 12:41:16;;;;;;;0.20;0.08;;;;;;;;;;5005679;28;20037;-81
2023/10/08 12:43:45;;;;;;;0.20;0.00;;;;;;;;;;4988204;28;20042;-81
2023/10/08 12:46:18;;;;;;;0.20;0.00;;;;;;;;;;5005045;28;20053;-83
2023/10/08 12:48:47;;;;;;;0.20;0.10;;;;;;;;;;4988937;28;20113;-81
2023/10/08 12:51:13;;;;;;;0.20;0.00;;;;;;;;;;4993311;28;20577;-82
2023/10/08 12:53:39;;;;;;;0.20;0.00;;;;;;;;;;5005136;28;20054;-81
2023/10/08 12:56:06;;;;;;;0.20;0.00;;;;;;;;;;5003077;28;20053;-81
2023/10/08 12:58:43;;;;;;;0.20;0.08;;;;;;;;;;5009587;28;20153;-82
2023/10/08 13:01:09;;;;;;;0.20;0.10;;;;;;;;;;4986404;28;20049;-81
2023/10/08 13:03:41;;;;;;;0.20;0.00;;;;;;;;;;5004910;28;20478;-82
2023/10/08 13:06:11;;;;;;;0.65;0.22;;;;;;;;;;4990659;28;20522;-82
2023/10/08 13:08:37;;;;;;;0.20;0.10;;;;;;;;;;5005399;28;20446;-81
2023/10/08 13:11:04;;;;;;;0.20;0.10;;;;;;;;;;4988455;28;20625;-81
2023/10/08 13:13:37;;;;;;;0.20;0.10;;;;;;;;;;5006518;28;20040;-81
2023/10/08 13:16:07;;;;;;;0.20;0.03;;;;;;;;;;4991118;28;20576;-80
2023/10/08 13:18:33;;;;;;;0.20;0.10;;;;;;;;;;4988261;28;20065;-81
2023/10/08 13:21:00;;;;;;;0.20;0.10;;;;;;;;;;4990720;28;20049;-80
2023/10/08 13:23:27;;;;;;;0.20;0.10;;;;;;;;;;5005729;28;20081;-82
2023/10/08 13:25:58;;;;;;;0.20;0.00;;;;;;;;;;4990158;28;20038;-83
2023/10/08 13:28:26;;;;;;;0.20;0.00;;;;;;;;;;5017484;28;20151;-82
2023/10/08 13:30:54;;;;;;;0.20;0.10;;;;;;;;;;4987510;28;20030;-80
2023/10/08 13:33:23;;;;;;;0.20;0.00;;;;;;;;;;5005106;28;20410;-81
2023/10/08 13:35:49;;;;;;;0.20;0.10;;;;;;;;;;5008180;28;20056;-81
2023/10/08 13:38:19;;;;;;;0.20;0.00;;;;;;;;;;5007534;28;20038;-80
2023/10/08 13:41:14;;;;;;;0.20;0.15;;;;;;;;;;5005358;28;20061;-82
2023/10/08 13:43:41;;;;;;;0.20;0.00;;;;;;;;;;5008755;28;20046;-82
2023/10/08 13:46:12;;;;;;;0.20;0.00;;;;;;;;;;5004703;28;20562;-81
2023/10/08 13:48:39;;;;;;;0.20;0.00;;;;;;;;;;5004202;28;20626;-80
2023/10/08 13:51:08;;;;;;;0.20;0.00;;;;;;;;;;5005619;28;20033;-80
2023/10/08 13:53:36;;;;;;;0.20;0.00;;;;;;;;;;5002344;28;20041;-80
2023/10/08 13:56:04;;;;;;;0.20;0.10;;;;;;;;;;4990174;28;20435;-81
2023/10/08 13:58:40;;;;;;;0.20;0.05;;;;;;;;;;4991876;28;20404;-80
2023/10/08 14:01:18;;;;;;;0.20;0.00;;;;;;;;;;4992251;28;20052;-81
2023/10/08 14:03:45;;;;;;;0.20;0.00;;;;;;;;;;5006155;28;20042;-81
2023/10/08 14:06:11;;;;;;;0.20;0.10;;;;;;;;;;4990719;28;20131;-81
2023/10/08 14:08:38;;;;;;;0.20;0.00;;;;;;;;;;5005308;28;20116;-82
2023/10/08 14:11:05;;;;;;;0.20;0.08;;;;;;;;;;5021773;28;20042;-82
2023/10/08 14:13:32;;;;;;;0.20;0.10;;;;;;;;;;4987111;28;20045;-81
2023/10/08 14:16:08;;;;;;;0.20;0.00;;;;;;;;;;5002747;28;20045;-82
2023/10/08 14:18:40;;;;;;;0.20;0.00;;;;;;;;;;4985615;28;20394;-82
2023/10/08 14:21:10;;;;;;;0.20;0.08;;;;;;;;;;4988115;28;20042;-81
2023/10/08 14:23:39;;;;;;;0.20;0.00;;;;;;;;;;5005959;28;20132;-82
2023/10/08 14:26:09;;;;;;;0.20;0.00;;;;;;;;;;5006058;28;20038;-81
2023/10/08 14:28:43;;;;;;;0.20;0.00;;;;;;;;;;5020115;28;20120;-81
2023/10/08 14:31:15;;;;;;;0.20;0.00;;;;;;;;;;4987432;28;20437;-82
2023/10/08 14:33:43;;;;;;;0.20;0.10;;;;;;;;;;5003544;28;20042;-81
2023/10/08 14:44:25;;;;;;;0.47;0.20;;;;;;;;;;5006664;28;20046;-82
2023/10/08 14:46:51;;;;;;;0.30;0.10;;;;;;;;;;4985763;28;21156;-82
2023/10/08 14:49:17;;;;;;;0.47;0.30;;;;;;;;;;4979754;28;20038;-82
2023/10/08 14:51:48;;;;;;;0.20;0.10;;;;;;;;;;5004876;28;20104;-82
2023/10/08 14:54:14;;;;;;;0.20;0.10;;;;;;;;;;5001654;28;20390;-83
2023/10/08 14:56:40;;;;;;;0.30;0.22;;;;;;;;;;4987362;28;20034;-81
2023/10/08 14:59:07;;;;;;;0.30;0.25;;;;;;;;;;4989424;28;20084;-81
2023/10/08 15:01:33;;;;;;;0.30;0.20;;;;;;;;;;5003267;28;20387;-81
2023/10/08 15:04:03;;;;;;;0.80;0.80;;;;;;;;;;4987954;28;20084;-83
2023/10/08 15:06:30;;;;;;;0.20;0.10;;;;;;;;;;4987154;28;20046;-81
2023/10/08 15:08:57;;;;;;;0.20;0.10;;;;;;;;;;4990299;28;20117;-82
2023/10/08 15:11:25;;;;;;;0.20;0.10;;;;;;;;;;5021532;28;20302;-82
2023/10/08 15:13:53;;;;;;;0.22;0.20;;;;;;;;;;5004738;28;20050;-81
2023/10/08 15:16:22;;;;;;;0.20;0.10;;;;;;;;;;4985061;28;20063;-82
2023/10/08 15:18:49;;;;;;;0.40;0.40;;;;;;;;;;5000200;28;20120;-81
2023/10/08 15:21:17;;;;;;;0.32;0.32;;;;;;;;;;4991598;28;20492;-81
2023/10/08 15:23:43;;;;;;;1.85;0.95;;;;;;;;;;4983174;28;20043;-81
2023/10/08 15:26:11;;;;;;;0.20;0.20;;;;;;;;;;5006138;28;20042;-82
2023/10/08 15:28:38;;;;;;;0.63;0.60;;;;;;;;;;4986444;28;20394;-81
2023/10/08 15:31:05;;;;;;;0.20;0.10;;;;;;;;;;5020188;28;20069;-81
2023/10/08 15:33:31;;;;;;;0.20;0.10;;;;;;;;;;4990443;28;20402;-81
2023/10/08 15:35:58;;;;;;;0.30;0.15;;;;;;;;;;5007384;28;20053;-81
2023/10/08 15:38:25;;;;;;;0.20;0.10;;;;;;;;;;5009431;28;20073;-81
2023/10/08 15:40:51;;;;;;;0.20;0.10;;;;;;;;;;5005485;28;20058;-81
2023/10/08 15:43:18;;;;;;;0.20;0.10;;;;;;;;;;5008979;28;20037;-81
2023/10/08 15:45:45;;;;;;;0.20;0.10;;;;;;;;;;5006006;28;20586;-81
2023/10/08 15:48:11;;;;;;;0.20;0.00;;;;;;;;;;5008614;28;20041;-82
2023/10/08 15:50:38;;;;;;;0.20;0.08;;;;;;;;;;4995318;28;20060;-81
2023/10/08 15:53:05;;;;;;;0.32;0.20;;;;;;;;;;5013208;28;20100;-81
2023/10/08 15:55:31;;;;;;;0.20;0.10;;;;;;;;;;5006058;28;20038;-81
2023/10/08 15:57:57;;;;;;;0.20;0.00;;;;;;;;;;4992315;28;20048;-81
2023/10/08 16:00:24;;;;;;;0.20;0.10;;;;;;;;;;5006946;28;20060;-81
2023/10/08 16:02:50;;;;;;;0.20;0.13;;;;;;;;;;5002476;28;20041;-81
2023/10/08 16:05:16;;;;;;;0.30;0.22;;;;;;;;;;4987521;28;20038;-81
2023/10/08 16:07:42;;;;;;;0.22;0.22;;;;;;;;;;5004118;28;20121;-81
2023/10/08 16:10:08;;;;;;;0.20;0.10;;;;;;;;;;4993569;28;20427;-81
2023/10/08 16:12:36;;;;;;;0.20;0.00;;;;;;;;;;4988761;28;20037;-82
2023/10/08 16:15:03;;;;;;;0.20;0.00;;;;;;;;;;5005694;28;20050;-81
2023/10/08 16:17:30;;;;;;;0.20;0.00;;;;;;;;;;4987173;28;20093;-81
2023/10/08 16:19:57;;;;;;;0.20;0.10;;;;;;;;;;5006302;28;20045;-81
2023/10/08 16:22:23;;;;;;;0.20;0.10;;;;;;;;;;5009427;28;20048;-81
2023/10/08 16:24:49;;;;;;;0.20;0.03;;;;;;;;;;4988968;28;20451;-81
2023/10/08 16:27:15;;;;;;;0.20;0.10;;;;;;;;;;5005079;28;20077;-81
2023/10/08 16:29:41;;;;;;;0.20;0.10;;;;;;;;;;5007448;28;20042;-81
2023/10/08 16:32:08;;;;;;;0.20;0.10;;;;;;;;;;4990586;28;20048;-80
2023/10/08 16:34:34;;;;;;;0.20;0.03;;;;;;;;;;5007253;28;20049;-81